Flight Track Log - Related Links

Times and Time Zones

All times are in EDT time to prevent confusion due to time zone crossing. See the DAL918 flight status page for this flight to view local times or setup timezone preferences in your user account.

Time Position Orientation Groundspeed Altitude Reporting Facility
EDT Latitude Longitude Course Direction KTS MPH feet Rate Location/Type
Tue 11:26:33 PM 33.6000 -84.4833 86° East 195 224 2,500  Level Atlanta TRACON
Tue 11:27:33 PM 33.5667 -84.5500 239° Southwest 261 300 4,900 2,238 Climbing Atlanta TRACON
Tue 11:28:39 PM 33.5167 -84.5167 151° Southeast 281 323 7,200 1,786 Climbing Atlanta TRACON
Tue 11:29:00 PM 33.6200 -83.9542 92° East  Level FlightAware Approximate
Tue 11:29:44 PM 33.5036 -84.4200 99° East 307 353 8,800  Level Atlanta Center
Tue 11:30:00 PM 33.6061 -83.8369 90° East  Level Estimated
Tue 11:30:44 PM 33.5058 -84.3153 89° East 312 359 10,500  Level Atlanta Center
Tue 11:31:00 PM 33.5922 -83.7196 90° East  Level Estimated
Tue 11:31:44 PM 33.5081 -84.1983 89° East 320 368 11,400  Level Atlanta Center
Tue 11:32:00 PM 33.5782 -83.6023 86° East  Level Estimated
Tue 11:32:44 PM 33.5125 -84.0761 87° East 358 412 13,000  Level Atlanta Center
Tue 11:33:44 PM 33.5186 -83.9492 87° East 379 436 14,700 1,600 Climbing Atlanta Center
Tue 11:34:44 PM 33.5353 -83.8169 81° East 394 453 16,200 1,000 Climbing Atlanta Center
Tue 11:35:44 PM 33.5558 -83.6872 79° East 394 453 16,700 350 Climbing Atlanta Center
Tue 11:36:44 PM 33.5867 -83.5525 75° East 399 459 16,900 100 Climbing Atlanta Center
Tue 11:37:44 PM 33.6172 -83.4078 76° East 399 459 16,900 -450 Level Atlanta Center
Tue 11:38:44 PM 33.6458 -83.2728 76° East 405 466 16,000 -1,000 Descending Atlanta Center
Tue 11:39:44 PM 33.6636 -83.1478 80° East 397 457 14,900 -1,050 Descending Atlanta Center
Tue 11:40:44 PM 33.6772 -83.0228 83° East 384 442 13,900 -1,050 Descending Atlanta Center
Tue 11:41:44 PM 33.6825 -82.8981 87° East 379 436 12,800 -950 Descending Atlanta Center
Tue 11:42:44 PM 33.6836 -82.7856 89° East 356 410 12,000 -1,350 Descending Atlanta Center
Tue 11:43:44 PM 33.6700 -82.6833 99° East 323 372 10,100 -1,800 Descending Atlanta Center
Tue 11:44:44 PM 33.6500 -82.5889 104° East 311 358 8,400 -1,500 Descending Atlanta Center
Tue 11:45:44 PM 33.6300 -82.4894 104° East 311 358 7,100 -1,400 Descending Atlanta Center
Tue 11:46:44 PM 33.6100 -82.3950 104° East 306 352 5,600 -1,400 Descending Atlanta Center
Tue 11:47:44 PM 33.5900 -82.3031 105° East 288 331 4,300 -1,250 Descending Atlanta Center
Tue 11:48:44 PM 33.5783 -82.2211 100° East 269 310 3,100 -800 Descending Atlanta Center
Tue 11:49:44 PM 33.5625 -82.1467 104° East 243 280 2,700 -300 Descending Atlanta Center
Tue 11:50:44 PM 33.5678 -82.0792 85° East 225 259 2,500 -50 Descending Atlanta Center
Tue 11:51:44 PM 33.6211 -82.0206 42° Northeast 200 230 2,600 50 Climbing Atlanta Center
Tue 11:52:44 PM 33.6642 -81.9672 46° Northeast 206 237 2,600  Level Atlanta Center
Tue 11:53:44 PM 33.7081 -81.9836 343° North 162 186 2,600  Level Atlanta Center
Tue 11:54:44 PM 33.6644 -81.9972 195° South 46 53 2,600  Level Atlanta Center
Tue 11:55:44 PM 33.6081 -81.9936 177° South 126 145 2,600  Level Atlanta Center
Tue 11:56:44 PM 33.5497 -82.0000 185° South 172 198 2,600 -100 Level Atlanta Center
Tue 11:57:44 PM 33.4933 -81.9986 179° South 199 229 2,400 -600 Descending Atlanta Center
Tue 11:58:44 PM 33.4494 -81.9897 170° South 189 217 1,400 -850 Descending Atlanta Center
Tue 11:59:44 PM 33.4075 -81.9783 167° South 170 196 700 -400 Descending Atlanta Center
Wed 12:00:44 AM 33.3636 -81.9769 178° South 163 188 600 -100 Descending Atlanta Center

Login

Don't have an account? Register now (free) for customized features, flight alerts, and more!